Terminal Aerodrome Forecast
Issued by NWS

Home | Current Version | Previous Version | Text Only | Print | Product List | Glossary Off
Versions: 1 2 3 4 5 6 7 8 9 10 11 12 13 14 15 16 17 18 19 20 21 22 23 24 25 26 27 28

197
FTUS43 KLOT 281731
TAFORD
TAF
KORD 281731Z 2818/2924 06010KT P6SM OVC010
     FM290100 04008KT P6SM OVC010
     FM291400 03009KT P6SM BKN020
     FM291700 05009KT P6SM SCT025=

USA.gov is the U.S. government's official web portal to all federal, state and local government web resources and services.